createdAt,value
2019-04-28T00:03:32.756Z,94529.75
2019-04-28T00:08:34.748Z,94539.25
2019-04-28T00:13:36.797Z,94541.44
2019-04-28T00:18:38.737Z,94538.94
2019-04-28T00:23:42.517Z,94533.79
2019-04-28T00:28:44.551Z,94519.05
2019-04-28T00:33:46.433Z,94523.45
2019-04-28T00:38:48.542Z,94524.32
2019-04-28T00:43:51.986Z,94514.52
2019-04-28T00:48:54.139Z,94518.87
2019-04-28T00:53:56.488Z,94516.00
2019-04-28T00:59:01.275Z,94526.30
2019-04-28T01:04:03.809Z,94526.30
2019-04-28T01:09:06.866Z,94521.02
2019-04-28T01:14:11.512Z,94528.08
2019-04-28T01:19:20.098Z,94535.91
2019-04-28T01:24:22.149Z,94540.98
2019-04-28T01:29:24.189Z,94548.78
2019-04-28T01:34:26.185Z,94541.55
2019-04-28T01:39:29.700Z,94536.98
2019-04-28T01:44:31.833Z,94538.98
2019-04-28T01:49:33.660Z,94531.33
2019-04-28T01:54:35.634Z,94531.61
2019-04-28T01:59:37.639Z,94533.70
2019-04-28T02:04:40.734Z,94529.61
2019-04-28T02:09:42.586Z,94530.66
2019-04-28T02:14:44.429Z,94541.36
2019-04-28T02:19:46.330Z,94535.11
2019-04-28T02:24:48.256Z,94535.59
2019-04-28T02:29:50.300Z,94535.92
2019-04-28T02:34:52.334Z,94532.81
2019-04-28T02:39:54.237Z,94537.69
2019-04-28T02:44:56.136Z,94534.25
2019-04-28T02:50:00.880Z,94542.92
2019-04-28T02:55:03.892Z,94537.14
2019-04-28T03:00:06.197Z,94550.99
2019-04-28T03:05:11.486Z,94554.22
2019-04-28T03:10:12.515Z,94554.48
2019-04-28T03:20:35.756Z,94557.59
2019-04-28T03:25:40.847Z,94568.82
2019-04-28T03:30:47.750Z,94576.77
2019-04-28T03:35:53.553Z,94583.35
2019-04-28T03:40:53.417Z,94584.55
2019-04-28T03:46:03.818Z,94592.27
2019-04-28T03:51:05.938Z,94604.25
2019-04-28T03:56:07.887Z,94611.81
2019-04-28T04:01:10.709Z,94613.34
2019-04-28T04:06:12.932Z,94625.52
2019-04-28T04:11:20.394Z,94624.52
2019-04-28T04:16:32.195Z,94635.84
2019-04-28T04:21:34.113Z,94637.23
2019-04-28T04:26:36.005Z,94640.09
2019-04-28T04:31:37.925Z,94645.09
2019-04-28T04:36:41.684Z,94643.13
2019-04-28T04:41:43.981Z,94652.64
2019-04-28T04:46:46.027Z,94648.02
2019-04-28T04:51:50.833Z,94649.33
2019-04-28T04:56:53.647Z,94648.15
2019-04-28T05:02:02.096Z,94652.45
2019-04-28T05:07:04.397Z,94653.54
2019-04-28T05:12:06.261Z,94652.50
2019-04-28T05:17:08.155Z,94647.54
2019-04-28T05:22:10.903Z,94645.90
2019-04-28T05:27:12.779Z,94645.56
2019-04-28T05:32:14.651Z,94648.77
2019-04-28T05:37:16.557Z,94646.78
2019-04-28T05:42:19.917Z,94640.95
2019-04-28T05:47:22.076Z,94637.18
2019-04-28T05:52:29.931Z,94627.63
2019-04-28T05:57:53.122Z,94636.06
2019-04-28T06:03:12.014Z,94639.09
2019-04-28T06:08:20.200Z,94645.05
2019-04-28T06:13:23.432Z,94638.66
2019-04-28T06:18:25.298Z,94631.28
2019-04-28T06:23:27.278Z,94626.87
2019-04-28T06:28:29.525Z,94628.47
2019-04-28T06:33:31.409Z,94629.52
2019-04-28T06:38:33.320Z,94625.13
2019-04-28T06:43:35.145Z,94629.11
2019-04-28T06:48:37.130Z,94627.73
2019-04-28T06:53:38.967Z,94629.36
2019-04-28T06:58:41.025Z,94631.70
2019-04-28T07:03:43.035Z,94631.62
2019-04-28T07:08:45.027Z,94627.48
2019-04-28T07:13:46.851Z,94627.50
2019-04-28T07:18:48.735Z,94640.72
2019-04-28T07:23:50.635Z,94640.46
2019-04-28T07:28:52.747Z,94639.80
2019-04-28T07:33:54.550Z,94641.66
2019-04-28T07:38:56.512Z,94647.19
2019-04-28T07:43:58.317Z,94646.16
2019-04-28T07:49:00.196Z,94641.94
2019-04-28T07:54:04.933Z,94643.47
2019-04-28T07:59:06.976Z,94643.84
2019-04-28T08:04:09.137Z,94648.81
2019-04-28T08:09:13.215Z,94641.37
2019-04-28T08:14:15.383Z,94642.42
2019-04-28T08:19:17.434Z,94641.80
2019-04-28T08:24:19.479Z,94644.31
2019-04-28T08:29:21.615Z,94637.09
2019-04-28T08:34:23.815Z,94635.64
2019-04-28T08:39:27.136Z,94637.21
2019-04-28T08:44:29.535Z,94630.75
2019-04-28T08:49:31.680Z,94631.11
2019-04-28T08:54:33.871Z,94633.19
2019-04-28T08:59:36.068Z,94630.91
2019-04-28T09:04:38.781Z,94638.59
2019-04-28T09:09:41.004Z,94629.53
2019-04-28T09:14:43.041Z,94624.77
2019-04-28T09:19:45.112Z,94632.98
2019-04-28T09:24:48.871Z,94624.92
2019-04-28T09:29:50.858Z,94632.67
2019-04-28T09:34:52.739Z,94626.16
2019-04-28T09:39:59.293Z,94620.48
2019-04-28T09:45:03.206Z,94608.27
2019-04-28T09:50:05.569Z,94607.36
2019-04-28T09:55:07.752Z,94598.29
2019-04-28T10:00:11.142Z,94600.00
2019-04-28T10:05:13.449Z,94591.13
2019-04-28T10:10:16.675Z,94592.73
2019-04-28T10:15:18.565Z,94583.88
2019-04-28T10:20:20.942Z,94581.63
2019-04-28T10:25:23.028Z,94570.24
2019-04-28T10:30:25.145Z,94557.18
2019-04-28T10:35:27.259Z,94558.19
2019-04-28T10:40:34.902Z,94549.64
2019-04-28T10:45:44.613Z,94529.16
2019-04-28T10:50:46.701Z,94543.53
2019-04-28T10:55:48.541Z,94541.71
2019-04-28T11:00:50.367Z,94526.90
2019-04-28T11:05:52.344Z,94526.61
2019-04-28T11:10:55.061Z,94525.36
2019-04-28T11:15:57.005Z,94520.22
2019-04-28T11:20:58.899Z,94514.27
2019-04-28T11:26:00.775Z,94534.91
2019-04-28T11:31:02.594Z,94534.91
2019-04-28T11:36:04.881Z,94517.19
2019-04-28T11:41:07.554Z,94519.89
2019-04-28T11:46:11.582Z,94500.00
2019-04-28T11:51:13.442Z,94519.75
2019-04-28T11:56:15.419Z,94516.04
2019-04-28T12:01:18.702Z,94496.36
2019-04-28T12:06:20.602Z,94467.13
2019-04-28T12:11:24.263Z,94467.13
2019-04-28T12:16:44.860Z,94482.77
2019-04-28T12:21:46.721Z,94483.86
2019-04-28T12:26:48.575Z,94476.76
2019-04-28T12:31:50.491Z,94463.40
2019-04-28T12:36:53.949Z,94466.83
2019-04-28T12:41:56.414Z,94465.21
2019-04-28T12:46:58.665Z,94446.84
2019-04-28T12:52:01.416Z,94437.28
2019-04-28T12:57:03.475Z,94462.59
2019-04-28T13:02:07.695Z,94447.36
2019-04-28T13:07:10.029Z,94445.14
2019-04-28T13:12:12.186Z,94438.58
2019-04-28T13:17:14.139Z,94421.61
2019-04-28T13:22:16.868Z,94435.16
2019-04-28T13:27:19.559Z,94435.16
2019-04-28T13:32:22.024Z,94434.48
2019-04-28T13:37:25.996Z,94417.50
2019-04-28T13:42:28.215Z,94418.59
2019-04-28T13:47:30.594Z,94417.14
2019-04-28T13:52:33.805Z,94408.02
2019-04-28T13:57:36.324Z,94408.56
2019-04-28T14:02:54.877Z,94410.03
2019-04-28T14:07:58.016Z,94404.02
2019-04-28T14:13:02.565Z,94404.34
2019-04-28T14:18:08.531Z,94401.45
2019-04-28T14:23:11.569Z,94396.89
2019-04-28T14:28:15.353Z,94397.64
2019-04-28T14:33:19.052Z,94394.13
2019-04-28T14:38:21.531Z,94385.18
2019-04-28T14:43:23.816Z,94387.43
2019-04-28T14:48:26.233Z,94383.22
2019-04-28T14:53:28.737Z,94379.54
2019-04-28T14:58:32.282Z,94378.67
2019-04-28T15:03:39.271Z,94381.38
2019-04-28T15:08:46.508Z,94390.25
2019-04-28T15:13:49.490Z,94388.09
2019-04-28T15:18:51.826Z,94379.66
2019-04-28T15:23:54.445Z,94376.05
2019-04-28T15:28:57.470Z,94375.84
2019-04-28T15:34:03.609Z,94380.66
2019-04-28T15:39:08.214Z,94383.08
2019-04-28T15:44:10.878Z,94369.81
2019-04-28T15:49:17.105Z,94374.31
2019-04-28T15:54:19.938Z,94372.86
2019-04-28T15:59:22.334Z,94364.50
2019-04-28T16:04:24.568Z,94364.73
2019-04-28T16:09:26.895Z,94373.95
2019-04-28T16:14:30.847Z,94364.59
2019-04-28T16:19:36.481Z,94366.81
2019-04-28T16:24:38.560Z,94355.59
2019-04-28T16:29:40.480Z,94363.73
2019-04-28T16:34:42.470Z,94365.38
2019-04-28T16:39:45.511Z,94359.45
2019-04-28T16:44:54.009Z,94362.09
2019-04-28T16:49:57.863Z,94366.95
2019-04-28T16:55:18.185Z,94374.63
2019-04-28T17:00:27.892Z,94379.18
2019-04-28T17:05:30.578Z,94380.07
2019-04-28T17:10:33.077Z,94390.78
2019-04-28T17:15:35.057Z,94401.80
2019-04-28T17:20:37.906Z,94402.50
2019-04-28T17:25:40.398Z,94404.99
2019-04-28T17:30:45.473Z,94418.24
2019-04-28T17:35:48.043Z,94424.06
2019-04-28T17:40:50.611Z,94430.84
2019-04-28T17:45:56.118Z,94436.19
2019-04-28T17:50:58.724Z,94436.72
2019-04-28T17:56:03.329Z,94435.63
2019-04-28T18:01:15.499Z,94443.92
2019-04-28T18:06:22.346Z,94455.77
2019-04-28T18:11:26.509Z,94449.61
2019-04-28T18:16:47.187Z,94454.59
2019-04-28T18:21:49.826Z,94461.08
2019-04-28T18:26:52.660Z,94476.45
2019-04-28T18:31:59.761Z,94481.16
2019-04-28T18:37:10.014Z,94481.66
2019-04-28T18:42:22.244Z,94486.14
2019-04-28T18:47:24.831Z,94492.34
2019-04-28T18:52:27.055Z,94491.41
2019-04-28T18:57:28.976Z,94496.41
2019-04-28T19:02:36.097Z,94503.08
2019-04-28T19:07:40.251Z,94512.44
2019-04-28T19:13:01.026Z,94513.03
2019-04-28T19:18:05.214Z,94508.58
2019-04-28T19:23:08.677Z,94519.80
2019-04-28T19:28:10.992Z,94517.77
2019-04-28T19:33:13.613Z,94517.70
2019-04-28T19:38:15.729Z,94524.25
2019-04-28T19:43:17.804Z,94524.09
2019-04-28T19:48:20.045Z,94534.16
2019-04-28T19:53:53.451Z,94529.90
2019-04-28T19:58:57.439Z,94523.66
2019-04-28T20:03:59.809Z,94518.42
2019-04-28T20:09:01.867Z,94525.56
2019-04-28T20:14:05.663Z,94532.73
2019-04-28T20:19:07.741Z,94527.78
2019-04-28T20:24:10.843Z,94524.07
2019-04-28T20:29:12.850Z,94526.97
2019-04-28T20:34:14.979Z,94516.20
2019-04-28T20:39:24.609Z,94524.55
2019-04-28T20:44:28.255Z,94518.08
2019-04-28T20:49:30.262Z,94525.08
2019-04-28T20:54:32.308Z,94522.01
2019-04-28T20:59:35.380Z,94516.13
2019-04-28T21:04:37.715Z,94512.97
2019-04-28T21:09:40.095Z,94510.67
2019-04-28T21:14:42.059Z,94514.50
2019-04-28T21:19:52.389Z,94505.72
2019-04-28T21:24:54.816Z,94508.73
2019-04-28T21:29:56.981Z,94509.09
2019-04-28T21:34:58.947Z,94510.26
2019-04-28T21:40:01.141Z,94513.69
2019-04-28T21:45:19.764Z,94517.37
2019-04-28T21:50:21.878Z,94515.08
2019-04-28T21:55:23.952Z,94516.68
2019-04-28T22:00:38.383Z,94515.06
2019-04-28T22:05:58.854Z,94511.13
2019-04-28T22:11:01.174Z,94517.84
2019-04-28T22:16:04.285Z,94513.73
2019-04-28T22:21:06.392Z,94513.80
2019-04-28T22:26:11.374Z,94515.55
2019-04-28T22:31:13.364Z,94515.67
2019-04-28T22:36:15.340Z,94514.13
2019-04-28T22:41:17.449Z,94504.88
2019-04-28T22:46:19.434Z,94505.70
2019-04-28T22:51:22.314Z,94503.81
2019-04-28T22:56:26.096Z,94514.61
2019-04-28T23:01:38.868Z,94515.16
2019-04-28T23:06:40.978Z,94516.99
2019-04-28T23:11:43.202Z,94504.75
2019-04-28T23:16:45.037Z,94497.95
2019-04-28T23:21:54.506Z,94496.55
2019-04-28T23:26:56.458Z,94486.30
2019-04-28T23:31:58.324Z,94486.05
2019-04-28T23:37:00.385Z,94480.39
2019-04-28T23:42:04.136Z,94486.62
2019-04-28T23:47:07.194Z,94482.53
2019-04-28T23:52:14.081Z,94489.42
2019-04-28T23:57:16.033Z,94488.27
